Time;durP1;ratioP1;P1;durP2;ratioP2;P2;SDS_P1;SDS_P2;PMS_P1;PMS_P2;Temp;Humidity;BMP_temperature;BMP_pressure;BME280_temperature;BME280_humidity;BME280_pressure;Samples;Min_cycle;Max_cycle;Signal;HPM_P1;HPM_P2
2021/12/12 00:00:31;;;;;;;;;;;;;;;;;;5035887;28;20401;-83
2021/12/12 00:03:01;;;;;;;;;;;;;;;;;;5043756;28;19932;-84
2021/12/12 00:05:33;;;;;;;;;;;;;;;;;;5055679;28;19921;-82
2021/12/12 00:08:01;;;;;;;;;;;;;;;;;;5011749;28;19922;-82
2021/12/12 00:10:28;;;;;;;;;;;;;;;;;;5015410;28;19921;-82
2021/12/12 00:12:55;;;;;;;;;;;;;;;;;;5034735;28;19921;-82
2021/12/12 00:15:21;;;;;;;;;;;;;;;;;;5035684;28;20019;-82
2021/12/12 00:17:46;;;;;;;;;;;;;;;;;;5035833;28;19968;-82
2021/12/12 00:20:13;;;;;;;;;;;;;;;;;;5035590;28;20337;-82
2021/12/12 00:22:38;;;;;;;;;;;;;;;;;;5049405;28;19921;-83
2021/12/12 00:25:08;;;;;;;;;;;;;;;;;;5055655;28;20326;-83
2021/12/12 00:27:36;;;;;;;;;;;;;;;;;;5055360;28;19932;-83
2021/12/12 00:30:03;;;;;;;;;;;;;;;;;;5054521;28;20326;-82
2021/12/12 00:32:30;;;;;;;;;;;;;;;;;;5039240;28;19928;-82
2021/12/12 00:34:58;;;;;;;;;;;;;;;;;;5034671;28;19936;-82
2021/12/12 00:37:23;;;;;;;;;;;;;;;;;;5040934;28;19939;-82
2021/12/12 00:39:51;;;;;;;;;;;;;;;;;;5055570;28;20027;-82
2021/12/12 00:42:18;;;;;;;;;;;;;;;;;;5040822;28;19921;-83
2021/12/12 00:44:44;;;;;;;;;;;;;;;;;;5033921;28;20226;-82
2021/12/12 00:47:10;;;;;;;;;;;;;;;;;;5034126;28;19917;-83
2021/12/12 00:49:35;;;;;;;;;;;;;;;;;;5034141;28;19925;-82
2021/12/12 00:52:01;;;;;;;;;;;;;;;;;;5044748;28;19998;-82
2021/12/12 00:54:31;;;;;;;;;;;;;;;;;;5054068;28;19920;-82
2021/12/12 00:56:56;;;;;;;;;;;;;;;;;;5054719;28;19943;-82
2021/12/12 00:59:24;;;;;;;;;;;;;;;;;;5054651;28;20354;-83
2021/12/12 01:01:52;;;;;;;;;;;;;;;;;;5043355;28;19921;-83
2021/12/12 01:04:20;;;;;;;;;;;;;;;;;;5033030;28;19921;-82
2021/12/12 01:06:55;;;;;;;;;;;;;;;;;;5043202;28;20013;-82
2021/12/12 01:09:28;;;;;;;;;;;;;;;;;;5021171;28;19968;-83
2021/12/12 01:11:54;;;;;;;;;;;;;;;;;;5033655;28;19921;-83
2021/12/12 01:14:22;;;;;;;;;;;;;;;;;;5032907;28;19921;-83
2021/12/12 01:16:49;;;;;;;;;;;;;;;;;;5032600;28;20012;-81
2021/12/12 01:19:20;;;;;;;;;;;;;;;;;;5016644;28;20461;-82
2021/12/12 01:21:47;;;;;;;;;;;;;;;;;;5030250;28;20180;-83
2021/12/12 01:24:18;;;;;;;;;;;;;;;;;;5034246;28;20303;-83
2021/12/12 01:26:47;;;;;;;;;;;;;;;;;;5034088;28;20342;-83
2021/12/12 01:29:13;;;;;;;;;;;;;;;;;;5034814;28;19921;-84
2021/12/12 01:31:46;;;;;;;;;;;;;;;;;;5032514;28;19991;-81
2021/12/12 01:34:18;;;;;;;;;;;;;;;;;;5032274;28;19990;-83
2021/12/12 01:39:27;;;;;;;;;;;;;;;;;;5031552;28;19979;-83
2021/12/12 01:41:55;;;;;;;;;;;;;;;;;;5033931;28;19921;-83
2021/12/12 01:44:23;;;;;;;;;;;;;;;;;;5034140;28;20012;-83
2021/12/12 01:46:57;;;;;;;;;;;;;;;;;;5016517;28;19983;-83
2021/12/12 01:49:23;;;;;;;;;;;;;;;;;;5016283;28;19921;-83
2021/12/12 01:51:51;;;;;;;;;;;;;;;;;;5033286;28;19928;-83
2021/12/12 01:54:18;;;;;;;;;;;;;;;;;;5032727;28;19932;-83
2021/12/12 01:56:50;;;;;;;;;;;;;;;;;;5018007;28;19913;-83
2021/12/12 01:59:15;;;;;;;;;;;;;;;;;;5031637;28;19928;-83
2021/12/12 02:01:46;;;;;;;;;;;;;;;;;;5035237;28;19921;-83
2021/12/12 02:04:16;;;;;;;;;;;;;;;;;;5034131;28;19978;-82
2021/12/12 02:06:45;;;;;;;;;;;;;;;;;;5032561;28;19921;-83
2021/12/12 02:09:13;;;;;;;;;;;;;;;;;;5028725;28;20267;-83
2021/12/12 02:11:38;;;;;;;;;;;;;;;;;;5038136;28;19929;-83
2021/12/12 02:14:10;;;;;;;;;;;;;;;;;;5016654;28;19921;-82
2021/12/12 02:16:38;;;;;;;;;;;;;;;;;;5032937;28;19932;-82
2021/12/12 02:19:03;;;;;;;;;;;;;;;;;;5032849;28;19920;-82
2021/12/12 02:21:53;;;;;;;;;;;;;;;;;;5032497;28;19917;-82
2021/12/12 02:35:23;;;;;;;;;;;;;;;;;;5033095;28;19928;-82
2021/12/12 02:37:49;;;;;;;;;;;;;;;;;;5017825;28;19921;-82
2021/12/12 02:40:17;;;;;;;;;;;;;;;;;;5032379;28;20047;-82
2021/12/12 02:42:43;;;;;;;;;;;;;;;;;;5037546;28;20008;-82
2021/12/12 02:45:09;;;;;;;;;;;;;;;;;;5033020;28;19976;-82
2021/12/12 02:47:35;;;;;;;;;;;;;;;;;;5032750;28;20063;-82
2021/12/12 02:50:11;;;;;;;;;;;;;;;;;;5033734;28;19983;-82
2021/12/12 02:52:39;;;;;;;;;;;;;;;;;;5033515;28;19952;-83
2021/12/12 02:55:24;;;;;;;;;;;;;;;;;;5032609;28;19946;-83
2021/12/12 02:57:53;;;;;;;;;;;;;;;;;;5013430;28;19925;-83
2021/12/12 03:00:20;;;;;;;;;;;;;;;;;;5013869;28;19941;-83
2021/12/12 03:02:46;;;;;;;;;;;;;;;;;;5041862;28;19921;-83
2021/12/12 03:05:13;;;;;;;;;;;;;;;;;;5032550;28;19932;-83
2021/12/12 03:07:38;;;;;;;;;;;;;;;;;;5032598;28;19921;-83
2021/12/12 03:10:05;;;;;;;;;;;;;;;;;;5033279;28;19996;-83
2021/12/12 03:12:33;;;;;;;;;;;;;;;;;;5028497;28;19921;-83
2021/12/12 03:15:08;;;;;;;;;;;;;;;;;;5032544;28;19980;-82
2021/12/12 03:17:36;;;;;;;;;;;;;;;;;;5036113;28;19924;-82
2021/12/12 03:20:09;;;;;;;;;;;;;;;;;;5039810;28;20337;-82
2021/12/12 03:22:35;;;;;;;;;;;;;;;;;;5041868;28;20015;-83
2021/12/12 03:25:03;;;;;;;;;;;;;;;;;;5036926;28;20029;-82
2021/12/12 03:27:28;;;;;;;;;;;;;;;;;;5036475;28;19931;-83
2021/12/12 03:29:53;;;;;;;;;;;;;;;;;;5035662;28;20250;-82
2021/12/12 03:32:19;;;;;;;;;;;;;;;;;;5036554;28;19921;-81
2021/12/12 03:34:46;;;;;;;;;;;;;;;;;;5035468;28;20376;-83
2021/12/12 03:37:14;;;;;;;;;;;;;;;;;;5037336;28;19921;-82
2021/12/12 03:39:41;;;;;;;;;;;;;;;;;;5036581;28;19963;-83
2021/12/12 03:42:08;;;;;;;;;;;;;;;;;;5036058;28;19936;-82
2021/12/12 03:44:34;;;;;;;;;;;;;;;;;;5035165;28;19935;-82
2021/12/12 03:47:11;;;;;;;;;;;;;;;;;;5036180;28;19916;-82
2021/12/12 03:49:39;;;;;;;;;;;;;;;;;;5036643;28;19932;-82
2021/12/12 03:52:08;;;;;;;;;;;;;;;;;;5045866;28;19933;-82
2021/12/12 03:54:35;;;;;;;;;;;;;;;;;;5036273;28;19929;-83
2021/12/12 03:57:01;;;;;;;;;;;;;;;;;;5035564;28;19921;-83
2021/12/12 03:59:29;;;;;;;;;;;;;;;;;;5036232;28;19921;-83
2021/12/12 04:01:54;;;;;;;;;;;;;;;;;;5035586;28;20015;-82
2021/12/12 04:04:21;;;;;;;;;;;;;;;;;;5036131;28;20016;-83
2021/12/12 04:06:47;;;;;;;;;;;;;;;;;;5035832;28;20408;-83
2021/12/12 04:09:14;;;;;;;;;;;;;;;;;;5034719;28;20015;-82
2021/12/12 04:11:40;;;;;;;;;;;;;;;;;;5035592;28;19929;-83
2021/12/12 04:14:06;;;;;;;;;;;;;;;;;;5034727;28;19921;-83
2021/12/12 04:16:32;;;;;;;;;;;;;;;;;;5035733;28;19921;-83
2021/12/12 04:18:57;;;;;;;;;;;;;;;;;;5035975;28;19924;-83
2021/12/12 04:21:26;;;;;;;;;;;;;;;;;;5046974;28;19974;-83
2021/12/12 04:23:52;;;;;;;;;;;;;;;;;;5035015;28;19963;-81
2021/12/12 04:26:20;;;;;;;;;;;;;;;;;;5035336;28;19929;-83
2021/12/12 04:28:53;;;;;;;;;;;;;;;;;;5035703;28;20008;-83
2021/12/12 04:31:18;;;;;;;;;;;;;;;;;;5035358;28;19932;-83
2021/12/12 04:33:43;;;;;;;;;;;;;;;;;;5035459;28;19921;-83
2021/12/12 04:36:11;;;;;;;;;;;;;;;;;;5034405;28;20243;-83
2021/12/12 04:38:51;;;;;;;;;;;;;;;;;;5034251;28;19964;-82
2021/12/12 04:41:21;;;;;;;;;;;;;;;;;;5049906;28;19925;-83
2021/12/12 04:43:46;;;;;;;;;;;;;;;;;;5018057;28;19936;-83
2021/12/12 04:46:12;;;;;;;;;;;;;;;;;;5034310;28;19921;-82
2021/12/12 04:51:34;;;;;;;;;;;;;;;;;;5035252;28;19932;-83
2021/12/12 04:54:08;;;;;;;;;;;;;;;;;;5018126;28;19933;-83
2021/12/12 04:56:52;;;;;;;;;;;;;;;;;;5034902;28;19921;-82
2021/12/12 04:59:19;;;;;;;;;;;;;;;;;;5034891;28;19921;-83
2021/12/12 05:02:23;;;;;;;;;;;;;;;;;;5030583;28;20004;-82
2021/12/12 05:04:58;;;;;;;;;;;;;;;;;;4953564;28;19922;-83
2021/12/12 05:07:42;;;;;;;;;;;;;;;;;;4954050;28;20014;-80
2021/12/12 05:10:10;;;;;;;;;;;;;;;;;;4954236;28;19934;-82
2021/12/12 05:12:43;;;;;;;;;;;;;;;;;;4964751;28;19922;-82
2021/12/12 05:15:19;;;;;;;;;;;;;;;;;;4957605;28;19970;-82
2021/12/12 05:17:48;;;;;;;;;;;;;;;;;;4973862;28;19918;-82
2021/12/12 05:20:18;;;;;;;;;;;;;;;;;;4973704;28;19958;-83
2021/12/12 05:22:44;;;;;;;;;;;;;;;;;;4965108;28;20322;-82
2021/12/12 05:25:15;;;;;;;;;;;;;;;;;;4973697;28;19945;-83
2021/12/12 05:27:40;;;;;;;;;;;;;;;;;;4973112;28;19917;-83
2021/12/12 05:30:11;;;;;;;;;;;;;;;;;;4969956;28;19926;-82
2021/12/12 05:32:36;;;;;;;;;;;;;;;;;;4970061;28;19926;-82
2021/12/12 05:35:02;;;;;;;;;;;;;;;;;;4990105;28;19932;-82
2021/12/12 05:37:30;;;;;;;;;;;;;;;;;;5033600;28;19929;-83
2021/12/12 05:40:00;;;;;;;;;;;;;;;;;;5033186;28;19956;-82
2021/12/12 05:42:25;;;;;;;;;;;;;;;;;;5034059;28;20254;-83
2021/12/12 05:44:50;;;;;;;;;;;;;;;;;;5032921;28;19979;-82
2021/12/12 05:47:17;;;;;;;;;;;;;;;;;;5034235;28;20344;-82
2021/12/12 05:49:43;;;;;;;;;;;;;;;;;;5034303;28;19948;-82
2021/12/12 05:52:12;;;;;;;;;;;;;;;;;;5033104;28;20349;-83
2021/12/12 05:54:37;;;;;;;;;;;;;;;;;;5033369;28;20016;-83
2021/12/12 05:57:05;;;;;;;;;;;;;;;;;;5034263;28;19968;-83
2021/12/12 05:59:33;;;;;;;;;;;;;;;;;;5041516;28;19932;-81
2021/12/12 06:02:00;;;;;;;;;;;;;;;;;;5052175;28;19940;-81
2021/12/12 06:04:26;;;;;;;;;;;;;;;;;;5054106;28;20003;-82
2021/12/12 06:06:51;;;;;;;;;;;;;;;;;;5053796;28;20050;-82
2021/12/12 06:09:17;;;;;;;;;;;;;;;;;;5052601;28;20007;-82
2021/12/12 06:11:43;;;;;;;;;;;;;;;;;;5051039;28;20249;-83
2021/12/12 06:14:08;;;;;;;;;;;;;;;;;;5033021;28;19921;-82
2021/12/12 06:16:36;;;;;;;;;;;;;;;;;;5033970;28;19940;-83
2021/12/12 06:19:10;;;;;;;;;;;;;;;;;;5032883;28;19921;-83
2021/12/12 06:21:38;;;;;;;;;;;;;;;;;;5033131;28;19921;-83
2021/12/12 06:24:04;;;;;;;;;;;;;;;;;;5032640;28;19952;-83
2021/12/12 06:26:29;;;;;;;;;;;;;;;;;;5033034;28;19925;-83
2021/12/12 06:28:55;;;;;;;;;;;;;;;;;;5033671;28;20346;-83
2021/12/12 06:31:20;;;;;;;;;;;;;;;;;;5036081;28;20003;-84
2021/12/12 06:33:45;;;;;;;;;;;;;;;;;;5015877;28;19990;-83
2021/12/12 06:36:11;;;;;;;;;;;;;;;;;;5033345;28;20328;-83
2021/12/12 06:38:37;;;;;;;;;;;;;;;;;;5032246;28;20415;-83
2021/12/12 06:41:05;;;;;;;;;;;;;;;;;;5033850;28;19970;-83
2021/12/12 06:43:30;;;;;;;;;;;;;;;;;;5033484;28;19980;-83
2021/12/12 06:45:56;;;;;;;;;;;;;;;;;;5032333;28;20356;-84
2021/12/12 06:48:23;;;;;;;;;;;;;;;;;;5032746;28;20301;-83
2021/12/12 06:50:50;;;;;;;;;;;;;;;;;;5035824;28;19931;-83
2021/12/12 06:53:17;;;;;;;;;;;;;;;;;;5037445;28;19921;-82
2021/12/12 06:55:46;;;;;;;;;;;;;;;;;;5043130;28;19921;-81
2021/12/12 06:58:14;;;;;;;;;;;;;;;;;;5037662;28;19921;-83
2021/12/12 07:00:41;;;;;;;;;;;;;;;;;;5035891;28;19921;-83
2021/12/12 07:03:06;;;;;;;;;;;;;;;;;;5036208;28;20027;-83
2021/12/12 07:05:31;;;;;;;;;;;;;;;;;;5036887;28;20382;-83
2021/12/12 07:07:59;;;;;;;;;;;;;;;;;;5036020;28;20274;-84
2021/12/12 07:10:26;;;;;;;;;;;;;;;;;;5036217;28;19921;-82
2021/12/12 07:12:55;;;;;;;;;;;;;;;;;;5036995;28;19923;-83
2021/12/12 07:15:21;;;;;;;;;;;;;;;;;;5036936;28;20019;-83
2021/12/12 07:17:49;;;;;;;;;;;;;;;;;;5038400;28;20008;-83
2021/12/12 07:20:17;;;;;;;;;;;;;;;;;;5036004;28;19932;-83
2021/12/12 07:22:42;;;;;;;;;;;;;;;;;;5042452;28;20339;-84
2021/12/12 07:25:07;;;;;;;;;;;;;;;;;;5035591;28;19940;-83
2021/12/12 07:27:33;;;;;;;;;;;;;;;;;;5036363;28;19921;-83
2021/12/12 07:29:58;;;;;;;;;;;;;;;;;;5019514;28;20473;-82
2021/12/12 07:32:24;;;;;;;;;;;;;;;;;;5043725;28;19921;-83
2021/12/12 07:34:50;;;;;;;;;;;;;;;;;;5035340;28;20236;-83
2021/12/12 07:37:15;;;;;;;;;;;;;;;;;;5035481;28;19957;-84
2021/12/12 07:39:41;;;;;;;;;;;;;;;;;;5036302;28;20346;-82
2021/12/12 07:42:07;;;;;;;;;;;;;;;;;;5036633;28;19937;-83
2021/12/12 07:44:34;;;;;;;;;;;;;;;;;;5035739;28;20128;-83
2021/12/12 07:46:59;;;;;;;;;;;;;;;;;;5035683;28;19921;-84
2021/12/12 07:49:30;;;;;;;;;;;;;;;;;;5046074;28;19975;-84
2021/12/12 07:51:55;;;;;;;;;;;;;;;;;;5051290;28;20020;-83
2021/12/12 07:54:20;;;;;;;;;;;;;;;;;;5054636;28;19956;-84
2021/12/12 07:56:46;;;;;;;;;;;;;;;;;;5052110;28;19955;-84
2021/12/12 07:59:12;;;;;;;;;;;;;;;;;;5034956;28;19917;-83
2021/12/12 08:01:38;;;;;;;;;;;;;;;;;;5033483;28;19922;-82
2021/12/12 08:04:04;;;;;;;;;;;;;;;;;;5034975;28;20024;-85
2021/12/12 08:06:29;;;;;;;;;;;;;;;;;;5035912;28;20025;-84
2021/12/12 08:08:54;;;;;;;;;;;;;;;;;;5044318;28;19921;-83
2021/12/12 08:11:21;;;;;;;;;;;;;;;;;;5044268;28;20258;-83
2021/12/12 08:13:46;;;;;;;;;;;;;;;;;;5045694;28;19925;-83
2021/12/12 08:16:14;;;;;;;;;;;;;;;;;;5034851;28;19932;-84
2021/12/12 08:18:39;;;;;;;;;;;;;;;;;;5034350;28;19932;-83
2021/12/12 08:21:04;;;;;;;;;;;;;;;;;;5035594;28;19921;-83
2021/12/12 08:23:30;;;;;;;;;;;;;;;;;;5034891;28;20405;-82
2021/12/12 08:25:55;;;;;;;;;;;;;;;;;;5037791;28;20009;-82
2021/12/12 08:28:21;;;;;;;;;;;;;;;;;;5034312;28;19928;-84
2021/12/12 08:30:47;;;;;;;;;;;;;;;;;;5017894;28;20358;-83
2021/12/12 08:33:12;;;;;;;;;;;;;;;;;;5034512;28;19921;-83
2021/12/12 08:35:38;;;;;;;;;;;;;;;;;;5034644;28;19925;-83
2021/12/12 08:38:06;;;;;;;;;;;;;;;;;;5035296;28;19921;-83
2021/12/12 08:40:37;;;;;;;;;;;;;;;;;;5035553;28;19936;-83
2021/12/12 08:43:12;;;;;;;;;;;;;;;;;;5017854;28;20020;-83
2021/12/12 08:45:37;;;;;;;;;;;;;;;;;;5034292;28;19921;-83
2021/12/12 08:48:03;;;;;;;;;;;;;;;;;;5014256;28;19921;-83
2021/12/12 08:50:32;;;;;;;;;;;;;;;;;;5022273;28;19932;-82
2021/12/12 08:53:00;;;;;;;;;;;;;;;;;;5034940;28;20366;-83
2021/12/12 08:55:36;;;;;;;;;;;;;;;;;;5033763;28;20000;-83
2021/12/12 08:58:14;;;;;;;;;;;;;;;;;;5034931;28;19943;-82
2021/12/12 09:00:42;;;;;;;;;;;;;;;;;;5034971;28;19921;-81
2021/12/12 09:03:08;;;;;;;;;;;;;;;;;;5037590;28;20346;-82
2021/12/12 09:05:34;;;;;;;;;;;;;;;;;;5034051;28;20002;-82
2021/12/12 09:08:05;;;;;;;;;;;;;;;;;;5034509;28;19921;-83
2021/12/12 09:10:50;;;;;;;;;;;;;;;;;;5036387;28;19974;-83
2021/12/12 09:13:20;;;;;;;;;;;;;;;;;;5032681;28;19947;-82
2021/12/12 09:16:02;;;;;;;;;;;;;;;;;;5033758;28;20222;-83
2021/12/12 09:18:29;;;;;;;;;;;;;;;;;;5034173;28;19928;-83
2021/12/12 09:21:23;;;;;;;;;;;;;;;;;;5034418;28;20310;-84
2021/12/12 09:23:50;;;;;;;;;;;;;;;;;;5034845;28;19928;-83
2021/12/12 09:26:21;;;;;;;;;;;;;;;;;;5043261;28;20015;-83
2021/12/12 09:28:53;;;;;;;;;;;;;;;;;;5039812;28;19929;-81
2021/12/12 09:31:22;;;;;;;;;;;;;;;;;;5047846;28;19920;-83
2021/12/12 09:33:54;;;;;;;;;;;;;;;;;;5049551;28;20396;-84
2021/12/12 09:36:21;;;;;;;;;;;;;;;;;;5033536;28;19971;-83
2021/12/12 09:38:52;;;;;;;;;;;;;;;;;;5032809;28;19925;-83
2021/12/12 09:41:27;;;;;;;;;;;;;;;;;;5033235;28;20036;-83
2021/12/12 09:44:13;;;;;;;;;;;;;;;;;;5033198;28;20354;-84
2021/12/12 09:47:12;;;;;;;;;;;;;;;;;;5034042;28;19917;-83
2021/12/12 09:52:36;;;;;;;;;;;;;;;;;;5031873;28;19932;-82
2021/12/12 09:55:09;;;;;;;;;;;;;;;;;;5034149;28;19921;-83
2021/12/12 09:57:39;;;;;;;;;;;;;;;;;;5034209;28;19940;-83
2021/12/12 10:00:10;;;;;;;;;;;;;;;;;;5033730;28;20341;-84
2021/12/12 10:02:41;;;;;;;;;;;;;;;;;;5034030;28;19921;-84
2021/12/12 10:05:08;;;;;;;;;;;;;;;;;;5033036;28;19996;-83
2021/12/12 10:07:46;;;;;;;;;;;;;;;;;;5032729;28;20347;-82
2021/12/12 10:10:14;;;;;;;;;;;;;;;;;;5033706;28;19921;-84
2021/12/12 10:12:53;;;;;;;;;;;;;;;;;;5016407;28;19964;-84
2021/12/12 10:15:22;;;;;;;;;;;;;;;;;;5033071;28;20010;-83
2021/12/12 10:18:11;;;;;;;;;;;;;;;;;;5035024;28;19921;-85
2021/12/12 10:21:01;;;;;;;;;;;;;;;;;;5041030;28;19932;-84
2021/12/12 10:23:33;;;;;;;;;;;;;;;;;;5054266;28;19935;-86
2021/12/12 10:26:03;;;;;;;;;;;;;;;;;;5057032;28;20337;-84
2021/12/12 10:28:32;;;;;;;;;;;;;;;;;;5048022;28;19921;-84
2021/12/12 10:31:00;;;;;;;;;;;;;;;;;;5037075;28;20258;-85
2021/12/12 10:33:25;;;;;;;;;;;;;;;;;;5037656;28;19921;-83
2021/12/12 10:35:52;;;;;;;;;;;;;;;;;;5037372;28;19932;-83
2021/12/12 10:38:23;;;;;;;;;;;;;;;;;;5037892;28;19921;-83
2021/12/12 10:40:51;;;;;;;;;;;;;;;;;;5038504;28;19971;-83
2021/12/12 10:43:23;;;;;;;;;;;;;;;;;;5036603;28;20397;-83
2021/12/12 10:45:50;;;;;;;;;;;;;;;;;;5037725;28;19925;-84
2021/12/12 10:48:16;;;;;;;;;;;;;;;;;;5036537;28;20008;-84
2021/12/12 10:50:41;;;;;;;;;;;;;;;;;;5019876;28;20023;-84
2021/12/12 10:53:08;;;;;;;;;;;;;;;;;;5036144;28;19983;-83
2021/12/12 10:55:41;;;;;;;;;;;;;;;;;;5036215;28;19922;-83
2021/12/12 10:58:12;;;;;;;;;;;;;;;;;;5036100;28;20259;-83
2021/12/12 11:00:46;;;;;;;;;;;;;;;;;;5047789;28;19943;-83
2021/12/12 11:03:14;;;;;;;;;;;;;;;;;;5026795;28;19921;-82
2021/12/12 11:05:41;;;;;;;;;;;;;;;;;;5035305;28;20329;-83
2021/12/12 11:08:06;;;;;;;;;;;;;;;;;;5041663;28;20615;-83
2021/12/12 11:10:32;;;;;;;;;;;;;;;;;;5029007;28;19957;-83
2021/12/12 11:13:04;;;;;;;;;;;;;;;;;;5016482;28;20012;-83
2021/12/12 11:15:55;;;;;;;;;;;;;;;;;;5034572;28;19925;-83
2021/12/12 11:18:23;;;;;;;;;;;;;;;;;;5038023;28;20297;-83
2021/12/12 11:20:52;;;;;;;;;;;;;;;;;;5039734;28;19921;-84
2021/12/12 11:23:22;;;;;;;;;;;;;;;;;;5015793;28;20025;-83
2021/12/12 11:25:50;;;;;;;;;;;;;;;;;;5027608;28;19932;-82
2021/12/12 11:28:26;;;;;;;;;;;;;;;;;;5035837;28;19922;-83
2021/12/12 11:30:55;;;;;;;;;;;;;;;;;;5045634;28;20286;-83
2021/12/12 11:33:20;;;;;;;;;;;;;;;;;;5036732;28;19928;-83
2021/12/12 11:35:47;;;;;;;;;;;;;;;;;;5035079;28;19925;-84
2021/12/12 11:38:35;;;;;;;;;;;;;;;;;;5036139;28;20318;-84
2021/12/12 11:41:06;;;;;;;;;;;;;;;;;;5041795;28;19931;-82
2021/12/12 11:43:32;;;;;;;;;;;;;;;;;;5035358;28;19928;-83
2021/12/12 11:46:02;;;;;;;;;;;;;;;;;;5036829;28;19921;-83
2021/12/12 11:48:30;;;;;;;;;;;;;;;;;;5034587;28;19921;-84
2021/12/12 11:51:01;;;;;;;;;;;;;;;;;;5036145;28;19975;-83
2021/12/12 11:53:47;;;;;;;;;;;;;;;;;;5038996;28;19925;-83
2021/12/12 11:56:18;;;;;;;;;;;;;;;;;;5015700;28;19917;-82
2021/12/12 11:58:50;;;;;;;;;;;;;;;;;;5015590;28;19932;-83
2021/12/12 12:01:15;;;;;;;;;;;;;;;;;;5032188;28;19917;-83
2021/12/12 12:04:01;;;;;;;;;;;;;;;;;;5029590;28;19932;-83
2021/12/12 12:06:29;;;;;;;;;;;;;;;;;;5034922;28;19976;-85
2021/12/12 12:09:04;;;;;;;;;;;;;;;;;;5035096;28;20378;-83
2021/12/12 12:11:48;;;;;;;;;;;;;;;;;;5035023;28;20016;-83
2021/12/12 12:14:27;;;;;;;;;;;;;;;;;;5034709;28;19960;-85
2021/12/12 12:17:14;;;;;;;;;;;;;;;;;;5014999;28;20377;-84
2021/12/12 12:19:39;;;;;;;;;;;;;;;;;;5016283;28;19921;-84
2021/12/12 12:22:24;;;;;;;;;;;;;;;;;;5030582;28;19929;-83
2021/12/12 12:24:58;;;;;;;;;;;;;;;;;;5053286;28;19964;-83
2021/12/12 12:27:40;;;;;;;;;;;;;;;;;;5029351;28;20008;-82
2021/12/12 12:30:37;;;;;;;;;;;;;;;;;;5035457;28;20341;-83
2021/12/12 12:33:27;;;;;;;;;;;;;;;;;;5033922;28;20012;-83
2021/12/12 12:35:58;;;;;;;;;;;;;;;;;;5034590;28;19932;-83
2021/12/12 12:38:49;;;;;;;;;;;;;;;;;;5033495;28;20015;-80
2021/12/12 12:41:51;;;;;;;;;;;;;;;;;;5032609;28;19929;-80
2021/12/12 12:44:19;;;;;;;;;;;;;;;;;;5031703;28;20237;-81
2021/12/12 12:50:22;;;;;;;;;;;;;;;;;;5032154;28;19932;-85
2021/12/12 12:53:10;;;;;;;;;;;;;;;;;;5032257;28;20273;-83
2021/12/12 12:59:19;;;;;;;;;;;;;;;;;;4925746;29;19923;-81
2021/12/12 13:02:05;;;;;;;;;;;;;;;;;;4933401;29;20321;-82
2021/12/12 13:04:33;;;;;;;;;;;;;;;;;;4930036;29;20017;-81
2021/12/12 13:07:14;;;;;;;;;;;;;;;;;;4932423;29;19954;-81
2021/12/12 13:09:54;;;;;;;;;;;;;;;;;;4932439;29;20272;-81
2021/12/12 13:12:31;;;;;;;;;;;;;;;;;;4933432;29;19930;-82
2021/12/12 13:15:17;;;;;;;;;;;;;;;;;;4921647;29;20384;-81
2021/12/12 13:17:51;;;;;;;;;;;;;;;;;;4932367;29;19922;-82
2021/12/12 13:20:19;;;;;;;;;;;;;;;;;;4932428;29;19927;-82
2021/12/12 13:22:49;;;;;;;;;;;;;;;;;;4917578;29;19931;-81
2021/12/12 13:25:26;;;;;;;;;;;;;;;;;;4918427;29;20017;-81
2021/12/12 13:28:16;;;;;;;;;;;;;;;;;;4918233;29;19931;-82
2021/12/12 13:31:16;;;;;;;;;;;;;;;;;;4916481;29;20364;-82
2021/12/12 13:34:08;;;;;;;;;;;;;;;;;;4942148;28;20371;-82
2021/12/12 13:36:52;;;;;;;;;;;;;;;;;;5034235;28;19980;-83
2021/12/12 13:39:43;;;;;;;;;;;;;;;;;;5030319;28;19920;-81
2021/12/12 13:42:27;;;;;;;;;;;;;;;;;;5025850;28;19933;-80
2021/12/12 13:45:02;;;;;;;;;;;;;;;;;;5047398;28;19944;-81
2021/12/12 13:47:34;;;;;;;;;;;;;;;;;;5027366;28;19928;-81
2021/12/12 13:49:59;;;;;;;;;;;;;;;;;;5036945;28;19921;-81
2021/12/12 13:53:03;;;;;;;;;;;;;;;;;;5034226;28;20357;-81
2021/12/12 13:55:47;;;;;;;;;;;;;;;;;;4972375;28;19922;-80
2021/12/12 13:58:23;;;;;;;;;;;;;;;;;;4973003;28;19953;-80
2021/12/12 14:00:50;;;;;;;;;;;;;;;;;;4972287;28;20004;-80
2021/12/12 14:03:27;;;;;;;;;;;;;;;;;;4979986;28;19983;-78
2021/12/12 14:05:54;;;;;;;;;;;;;;;;;;5030474;28;19925;-81
2021/12/12 14:08:30;;;;;;;;;;;;;;;;;;5013917;28;20011;-80
2021/12/12 14:11:02;;;;;;;;;;;;;;;;;;5011677;28;19980;-84
2021/12/12 14:13:28;;;;;;;;;;;;;;;;;;5027962;28;19921;-81
2021/12/12 14:15:54;;;;;;;;;;;;;;;;;;5026567;28;19940;-81
2021/12/12 14:18:19;;;;;;;;;;;;;;;;;;5032248;28;19921;-82
2021/12/12 14:20:47;;;;;;;;;;;;;;;;;;5029257;28;19920;-82
2021/12/12 14:23:15;;;;;;;;;;;;;;;;;;5030743;28;19978;-82
2021/12/12 14:25:41;;;;;;;;;;;;;;;;;;5027628;28;19929;-83
2021/12/12 14:28:13;;;;;;;;;;;;;;;;;;5033759;28;19925;-80
2021/12/12 14:30:45;;;;;;;;;;;;;;;;;;5032590;28;19921;-82
2021/12/12 14:33:14;;;;;;;;;;;;;;;;;;5014023;28;20319;-84
2021/12/12 14:36:17;;;;;;;;;;;;;;;;;;5013887;28;19932;-81
2021/12/12 14:38:42;;;;;;;;;;;;;;;;;;5030168;28;19978;-81
2021/12/12 14:41:18;;;;;;;;;;;;;;;;;;5033229;28;20361;-81
2021/12/12 14:43:50;;;;;;;;;;;;;;;;;;5030087;28;19921;-81
2021/12/12 14:46:26;;;;;;;;;;;;;;;;;;5010050;28;20370;-83
2021/12/12 14:49:16;;;;;;;;;;;;;;;;;;5032928;28;19951;-82
2021/12/12 14:51:47;;;;;;;;;;;;;;;;;;5029336;28;19921;-81
2021/12/12 14:54:17;;;;;;;;;;;;;;;;;;5033512;28;19929;-82
2021/12/12 14:56:59;;;;;;;;;;;;;;;;;;5033688;28;20032;-82
2021/12/12 14:59:29;;;;;;;;;;;;;;;;;;5032838;28;20278;-84
2021/12/12 15:02:17;;;;;;;;;;;;;;;;;;5030841;28;19928;-81
2021/12/12 15:04:54;;;;;;;;;;;;;;;;;;5002593;28;19984;-82
2021/12/12 15:07:23;;;;;;;;;;;;;;;;;;5031557;28;19982;-83
2021/12/12 15:09:53;;;;;;;;;;;;;;;;;;5031024;28;19956;-82
2021/12/12 15:12:18;;;;;;;;;;;;;;;;;;5034676;28;19929;-84
2021/12/12 15:14:49;;;;;;;;;;;;;;;;;;5037412;28;19931;-84
2021/12/12 15:17:16;;;;;;;;;;;;;;;;;;5036560;28;19964;-83
2021/12/12 15:19:45;;;;;;;;;;;;;;;;;;5035558;28;19933;-84
2021/12/12 15:22:11;;;;;;;;;;;;;;;;;;5037188;28;20246;-84
2021/12/12 15:24:57;;;;;;;;;;;;;;;;;;5011039;28;20024;-83
2021/12/12 15:27:23;;;;;;;;;;;;;;;;;;5037529;28;20354;-84
2021/12/12 15:29:52;;;;;;;;;;;;;;;;;;5036333;28;19968;-84
2021/12/12 15:32:21;;;;;;;;;;;;;;;;;;5035342;28;20338;-85
2021/12/12 15:35:07;;;;;;;;;;;;;;;;;;5043839;28;19925;-85
2021/12/12 15:37:39;;;;;;;;;;;;;;;;;;5041289;28;19941;-82
2021/12/12 15:40:12;;;;;;;;;;;;;;;;;;5037821;28;20011;-84
2021/12/12 15:42:38;;;;;;;;;;;;;;;;;;5036949;28;19933;-88
2021/12/12 15:45:06;;;;;;;;;;;;;;;;;;5036205;28;19928;-87
2021/12/12 15:47:31;;;;;;;;;;;;;;;;;;5047763;28;19946;-86
2021/12/12 15:50:04;;;;;;;;;;;;;;;;;;5032589;28;19925;-86
2021/12/12 15:52:49;;;;;;;;;;;;;;;;;;5030396;28;19932;-87
2021/12/12 15:55:19;;;;;;;;;;;;;;;;;;5035380;28;19925;-87
2021/12/12 15:57:45;;;;;;;;;;;;;;;;;;5035999;28;19932;-85
2021/12/12 16:00:14;;;;;;;;;;;;;;;;;;5026843;28;19929;-86
2021/12/12 16:02:39;;;;;;;;;;;;;;;;;;5043783;28;20259;-86
2021/12/12 16:05:09;;;;;;;;;;;;;;;;;;5035770;28;19967;-86
2021/12/12 16:07:41;;;;;;;;;;;;;;;;;;5036331;28;20003;-87
2021/12/12 16:10:08;;;;;;;;;;;;;;;;;;5009636;28;19925;-86
2021/12/12 16:12:38;;;;;;;;;;;;;;;;;;5037525;28;19925;-86
2021/12/12 16:15:04;;;;;;;;;;;;;;;;;;5035928;28;20357;-86
2021/12/12 16:17:34;;;;;;;;;;;;;;;;;;5041129;28;19931;-86
2021/12/12 16:20:08;;;;;;;;;;;;;;;;;;5047704;28;19953;-88
2021/12/12 16:22:34;;;;;;;;;;;;;;;;;;5034061;28;20008;-86
2021/12/12 16:25:10;;;;;;;;;;;;;;;;;;5032722;28;20342;-86
2021/12/12 16:27:38;;;;;;;;;;;;;;;;;;5029665;28;19940;-87
2021/12/12 16:30:09;;;;;;;;;;;;;;;;;;5037449;28;20432;-83
2021/12/12 16:33:01;;;;;;;;;;;;;;;;;;5024770;28;19948;-82
2021/12/12 16:35:26;;;;;;;;;;;;;;;;;;5017266;28;19936;-83
2021/12/12 16:37:53;;;;;;;;;;;;;;;;;;5034527;28;19921;-84
2021/12/12 16:40:19;;;;;;;;;;;;;;;;;;5035227;28;20051;-83
2021/12/12 16:42:51;;;;;;;;;;;;;;;;;;5034501;28;20043;-83
2021/12/12 16:45:27;;;;;;;;;;;;;;;;;;5039857;28;19933;-84
2021/12/12 16:47:54;;;;;;;;;;;;;;;;;;5043033;28;19987;-84
2021/12/12 16:50:21;;;;;;;;;;;;;;;;;;5032782;28;19913;-83
2021/12/12 16:52:47;;;;;;;;;;;;;;;;;;5038555;28;20019;-83
2021/12/12 16:55:43;;;;;;;;;;;;;;;;;;5024297;28;20010;-86
2021/12/12 16:58:42;;;;;;;;;;;;;;;;;;5035954;28;19948;-84
2021/12/12 17:01:21;;;;;;;;;;;;;;;;;;5034809;28;19921;-85
2021/12/12 17:03:52;;;;;;;;;;;;;;;;;;5032149;28;19928;-83
2021/12/12 17:06:35;;;;;;;;;;;;;;;;;;5027749;28;19932;-83
2021/12/12 17:13:08;;;;;;;;;;;;;;;;;;;;;
2021/12/12 17:21:59;;;;;;;;;;;;;;;;;;4991835;28;19988;-87
2021/12/12 17:24:52;;;;;;;;;;;;;;;;;;4977602;28;19922;-82
2021/12/12 17:27:37;;;;;;;;;;;;;;;;;;4991513;28;19929;-90
2021/12/12 17:30:05;;;;;;;;;;;;;;;;;;4992334;28;19965;-83
2021/12/12 17:32:50;;;;;;;;;;;;;;;;;;4991970;28;19918;-82
2021/12/12 17:35:35;;;;;;;;;;;;;;;;;;4993177;28;19921;-82
2021/12/12 17:38:02;;;;;;;;;;;;;;;;;;4967167;28;19933;-82
2021/12/12 17:40:41;;;;;;;;;;;;;;;;;;4990385;28;20390;-83
2021/12/12 17:43:11;;;;;;;;;;;;;;;;;;4966141;28;19937;-89
2021/12/12 17:45:55;;;;;;;;;;;;;;;;;;5032455;28;19921;-88
2021/12/12 17:48:39;;;;;;;;;;;;;;;;;;5031976;28;19921;-88